Time;durP1;ratioP1;P1;durP2;ratioP2;P2;SDS_P1;SDS_P2;PMS_P1;PMS_P2;Temp;Humidity;BMP_temperature;BMP_pressure;BME280_temperature;BME280_humidity;BME280_pressure;Samples;Min_cycle;Max_cycle;Signal;HPM_P1;HPM_P2
2022/05/14 00:01:58;;;;;;;12.20;4.72;;;13.10;99.90;;;;;;5014656;28;20041;-70
2022/05/14 00:04:24;;;;;;;11.13;4.50;;;13.10;99.90;;;;;;5032301;28;20100;-71
2022/05/14 00:06:51;;;;;;;13.43;4.65;;;13.10;99.90;;;;;;5015110;28;20564;-70
2022/05/14 00:09:17;;;;;;;16.77;4.93;;;13.00;99.90;;;;;;5017355;28;20117;-70
2022/05/14 00:14:27;;;;;;;12.13;4.63;;;13.10;99.90;;;;;;5042403;28;20053;-70
2022/05/14 00:16:53;;;;;;;14.68;4.97;;;13.10;99.90;;;;;;5041591;28;20025;-71
2022/05/14 00:19:19;;;;;;;14.82;5.07;;;13.10;99.90;;;;;;5035843;28;20052;-70
2022/05/14 00:21:44;;;;;;;16.52;5.35;;;13.10;99.90;;;;;;5035070;28;20083;-70
2022/05/14 00:24:10;;;;;;;16.83;6.20;;;13.10;99.90;;;;;;5036144;28;20021;-70
2022/05/14 00:26:38;;;;;;;13.18;5.07;;;13.10;99.90;;;;;;5035931;28;20055;-71
2022/05/14 00:29:05;;;;;;;14.63;5.00;;;13.10;99.90;;;;;;5036289;28;20025;-72
2022/05/14 00:31:31;;;;;;;13.63;5.32;;;13.10;99.90;;;;;;5018726;28;20171;-72
2022/05/14 00:33:57;;;;;;;11.73;5.43;;;13.10;99.90;;;;;;5036348;28;20053;-71
2022/05/14 00:36:23;;;;;;;14.00;5.75;;;13.10;99.90;;;;;;5018710;28;20022;-71
2022/05/14 00:38:49;;;;;;;11.13;5.32;;;13.20;99.90;;;;;;5035965;28;20036;-71
2022/05/14 00:41:15;;;;;;;10.48;4.90;;;13.20;99.90;;;;;;5036068;28;20509;-71
2022/05/14 00:43:50;;;;;;;15.13;4.95;;;13.20;99.90;;;;;;5035568;28;20029;-70
2022/05/14 00:46:19;;;;;;;13.02;4.95;;;13.30;99.90;;;;;;5020919;28;20383;-69
2022/05/14 00:48:47;;;;;;;12.77;5.55;;;13.30;99.90;;;;;;5003254;28;20030;-70
2022/05/14 00:51:16;;;;;;;9.35;4.43;;;13.30;99.90;;;;;;5014608;28;20044;-69
2022/05/14 00:53:49;;;;;;;12.40;4.78;;;13.30;99.90;;;;;;5015162;28;20083;-70
2022/05/14 00:56:20;;;;;;;12.35;4.97;;;13.30;99.90;;;;;;5033489;28;20378;-70
2022/05/14 00:59:06;;;;;;;22.60;5.60;;;13.30;99.90;;;;;;5034047;28;20030;-70
2022/05/14 01:01:33;;;;;;;15.68;4.95;;;13.30;99.90;;;;;;5015734;28;20037;-70
2022/05/14 01:03:58;;;;;;;14.40;5.25;;;13.30;99.90;;;;;;5029991;28;20021;-69
2022/05/14 01:06:29;;;;;;;14.13;5.40;;;13.30;99.90;;;;;;5024657;28;20022;-70
2022/05/14 01:08:55;;;;;;;11.50;5.07;;;13.30;99.90;;;;;;5016848;28;20041;-69
2022/05/14 01:11:21;;;;;;;13.02;4.80;;;13.30;99.90;;;;;;5024551;28;20738;-70
2022/05/14 01:13:46;;;;;;;14.02;6.20;;;13.30;99.90;;;;;;5004058;28;20025;-70
2022/05/14 01:16:12;;;;;;;16.23;5.15;;;13.30;99.90;;;;;;4998666;28;20033;-71
2022/05/14 01:18:38;;;;;;;10.48;5.18;;;13.30;99.90;;;;;;4997870;28;20030;-71
2022/05/14 01:21:32;;;;;;;20.38;5.32;;;13.30;99.90;;;;;;5015497;28;20498;-70
2022/05/14 01:27:27;;;;;;;14.48;5.63;;;13.30;99.90;;;;;;5009717;28;20037;-69
2022/05/14 01:29:52;;;;;;;15.52;5.88;;;13.30;99.90;;;;;;5015127;28;20127;-69
2022/05/14 01:32:18;;;;;;;17.30;6.43;;;13.30;99.90;;;;;;5015435;28;20086;-71
2022/05/14 01:34:44;;;;;;;18.27;7.22;;;13.40;99.90;;;;;;5015495;28;20037;-71
2022/05/14 01:37:10;;;;;;;13.77;6.45;;;13.30;99.90;;;;;;5015597;28;20022;-70
2022/05/14 01:39:36;;;;;;;16.83;6.88;;;13.30;99.90;;;;;;5015140;28;20022;-71
2022/05/14 01:42:03;;;;;;;16.20;6.45;;;13.30;99.90;;;;;;5015191;28;20029;-71
2022/05/14 01:44:29;;;;;;;17.00;7.97;;;13.30;99.90;;;;;;5015500;28;20092;-71
2022/05/14 01:46:54;;;;;;;20.15;8.32;;;13.30;99.90;;;;;;5015427;28;20030;-71
2022/05/14 01:49:20;;;;;;;14.98;7.57;;;13.30;99.90;;;;;;4997668;28;20025;-70
2022/05/14 01:51:46;;;;;;;20.08;8.05;;;13.30;99.90;;;;;;5015769;28;20117;-71
2022/05/14 01:54:12;;;;;;;17.90;8.65;;;13.30;99.90;;;;;;5016602;28;20025;-70
2022/05/14 01:56:37;;;;;;;17.48;8.82;;;13.30;99.90;;;;;;5024728;28;20034;-70
2022/05/14 01:59:04;;;;;;;19.17;7.93;;;13.30;99.90;;;;;;5021067;28;20025;-71
2022/05/14 02:01:32;;;;;;;18.88;8.18;;;13.30;99.90;;;;;;5015123;28;20022;-71
2022/05/14 02:04:03;;;;;;;18.30;7.82;;;13.20;99.90;;;;;;5014544;28;20029;-71
2022/05/14 02:06:30;;;;;;;15.57;6.60;;;13.20;99.90;;;;;;4997006;28;20064;-71
2022/05/14 02:08:57;;;;;;;15.32;6.30;;;13.20;99.90;;;;;;5014474;28;20494;-71
2022/05/14 02:11:24;;;;;;;20.17;7.13;;;13.20;99.90;;;;;;5014583;28;20080;-71
2022/05/14 02:13:51;;;;;;;11.65;6.20;;;13.20;99.90;;;;;;5019414;28;20021;-71
2022/05/14 02:16:17;;;;;;;18.00;6.75;;;13.20;99.90;;;;;;5034948;28;20113;-71
2022/05/14 02:18:43;;;;;;;13.50;5.85;;;13.20;99.90;;;;;;5035284;28;20542;-72
2022/05/14 02:21:10;;;;;;;15.20;5.70;;;13.10;99.90;;;;;;5027528;28;20060;-71
2022/05/14 02:23:37;;;;;;;16.38;6.20;;;13.10;99.90;;;;;;5014675;28;20026;-72
2022/05/14 02:26:08;;;;;;;12.40;5.38;;;13.10;99.90;;;;;;4997138;28;20071;-71
2022/05/14 02:28:34;;;;;;;17.45;5.78;;;13.00;99.90;;;;;;5017509;28;20442;-71
2022/05/14 02:31:00;;;;;;;14.95;5.50;;;13.00;99.90;;;;;;4997957;28;20022;-71
2022/05/14 02:33:26;;;;;;;14.10;5.63;;;13.00;99.90;;;;;;5023805;28;20380;-70
2022/05/14 02:35:51;;;;;;;13.95;5.40;;;12.90;99.90;;;;;;4998417;28;20047;-70
2022/05/14 02:38:17;;;;;;;12.63;5.75;;;12.90;99.90;;;;;;5016281;28;20422;-71
2022/05/14 02:40:43;;;;;;;11.93;5.50;;;12.90;99.90;;;;;;5022816;28;20021;-70
2022/05/14 02:43:10;;;;;;;9.10;5.35;;;12.90;99.90;;;;;;5025418;28;20036;-70
2022/05/14 02:45:36;;;;;;;15.05;5.28;;;12.90;99.90;;;;;;5014232;28;20026;-69
2022/05/14 02:48:02;;;;;;;16.73;5.53;;;12.80;99.90;;;;;;5014240;28;20049;-70
2022/05/14 02:50:27;;;;;;;12.57;5.30;;;12.80;99.90;;;;;;4996270;28;20022;-70
2022/05/14 02:52:53;;;;;;;13.90;5.43;;;12.80;99.90;;;;;;5014104;28;20033;-70
2022/05/14 02:55:19;;;;;;;10.90;5.70;;;12.80;99.90;;;;;;5013696;28;20041;-69
2022/05/14 02:57:45;;;;;;;9.38;4.95;;;12.80;99.90;;;;;;5014101;28;20530;-70
2022/05/14 03:00:13;;;;;;;15.60;5.60;;;12.80;99.90;;;;;;4996191;28;20141;-71
2022/05/14 03:02:39;;;;;;;13.45;5.90;;;12.80;99.90;;;;;;5004293;28;20022;-71
2022/05/14 03:05:06;;;;;;;11.70;5.07;;;12.80;99.90;;;;;;5014515;28;20379;-70
2022/05/14 03:07:31;;;;;;;17.90;6.43;;;12.80;99.90;;;;;;4996105;28;20409;-70
2022/05/14 03:09:57;;;;;;;11.38;5.53;;;12.80;99.90;;;;;;5014055;28;20036;-70
2022/05/14 03:12:24;;;;;;;14.70;5.40;;;12.90;99.90;;;;;;4995915;28;20037;-70
2022/05/14 03:14:49;;;;;;;17.67;5.65;;;12.80;99.90;;;;;;5013719;28;20085;-70
2022/05/14 03:17:16;;;;;;;12.00;5.95;;;12.80;99.90;;;;;;5013764;28;20563;-70
2022/05/14 03:19:42;;;;;;;12.35;5.95;;;12.90;99.90;;;;;;5013670;28;20041;-70
2022/05/14 03:22:08;;;;;;;12.65;6.13;;;12.90;99.90;;;;;;5013559;28;20030;-70
2022/05/14 03:24:36;;;;;;;18.80;5.30;;;12.80;99.90;;;;;;5013097;28;20026;-70
2022/05/14 03:27:02;;;;;;;17.23;6.03;;;12.80;99.90;;;;;;5013191;28;20045;-70
2022/05/14 03:29:28;;;;;;;13.60;5.35;;;12.80;99.90;;;;;;5013054;28;20069;-70
2022/05/14 03:31:57;;;;;;;14.95;5.88;;;12.80;99.90;;;;;;4995719;28;20041;-69
2022/05/14 03:34:23;;;;;;;18.50;5.80;;;12.80;99.90;;;;;;5013603;28;20021;-69
2022/05/14 03:36:48;;;;;;;16.15;5.75;;;12.90;99.90;;;;;;5013163;28;20065;-69
2022/05/14 03:39:14;;;;;;;17.33;5.43;;;12.80;99.90;;;;;;5013168;28;20072;-70
2022/05/14 03:41:40;;;;;;;19.88;6.38;;;12.80;99.90;;;;;;5013664;28;20053;-70
2022/05/14 03:44:06;;;;;;;16.00;6.13;;;12.90;99.90;;;;;;5015164;28;20026;-71
2022/05/14 03:46:31;;;;;;;16.60;6.28;;;12.90;99.90;;;;;;5017012;28;20030;-70
2022/05/14 03:48:57;;;;;;;19.60;6.25;;;12.90;99.90;;;;;;5017260;28;20100;-71
2022/05/14 03:51:23;;;;;;;19.20;5.93;;;12.90;99.90;;;;;;5017810;28;20105;-71
2022/05/14 03:53:48;;;;;;;15.88;5.53;;;12.90;99.90;;;;;;5017365;28;20033;-70
2022/05/14 03:56:14;;;;;;;17.50;5.50;;;12.90;99.90;;;;;;5054546;23;20486;-75
2022/05/14 03:58:40;;;;;;;16.42;4.88;;;12.90;99.90;;;;;;5039687;28;20071;-75
2022/05/14 04:01:06;;;;;;;18.23;5.40;;;12.90;99.90;;;;;;5039496;28;20030;-75
2022/05/14 04:03:34;;;;;;;22.08;6.68;;;12.90;99.90;;;;;;5022708;28;20359;-75
2022/05/14 04:06:00;;;;;;;17.27;5.55;;;13.00;99.90;;;;;;5040066;28;20034;-74
2022/05/14 04:08:26;;;;;;;20.10;6.32;;;12.90;99.90;;;;;;5039474;28;20450;-74
2022/05/14 04:10:52;;;;;;;19.25;6.05;;;12.90;99.90;;;;;;5022758;28;20025;-75
2022/05/14 04:13:17;;;;;;;22.55;5.90;;;13.00;99.90;;;;;;5022047;28;20156;-75
2022/05/14 04:15:43;;;;;;;17.67;5.43;;;13.00;99.90;;;;;;5023347;28;20122;-74
2022/05/14 04:18:09;;;;;;;16.67;6.50;;;13.10;99.90;;;;;;5021865;28;20036;-75
2022/05/14 04:20:35;;;;;;;21.40;5.70;;;13.00;99.90;;;;;;5039732;28;20040;-74
2022/05/14 04:23:02;;;;;;;16.67;6.05;;;13.00;99.90;;;;;;5039671;28;20049;-75
2022/05/14 04:25:28;;;;;;;16.90;6.93;;;13.00;99.90;;;;;;5039390;28;20013;-75
2022/05/14 04:27:53;;;;;;;17.88;6.20;;;13.10;99.90;;;;;;5039690;28;20031;-74
2022/05/14 04:30:19;;;;;;;16.77;5.90;;;13.00;99.90;;;;;;5039293;28;20041;-74
2022/05/14 04:32:45;;;;;;;21.40;6.15;;;13.10;99.90;;;;;;5022151;28;20032;-74
2022/05/14 04:35:12;;;;;;;21.02;6.22;;;13.10;99.90;;;;;;5024811;28;20391;-74
2022/05/14 04:37:38;;;;;;;14.68;6.85;;;13.10;99.90;;;;;;5050729;28;20027;-74
2022/05/14 04:40:05;;;;;;;24.02;6.47;;;13.10;99.90;;;;;;5044647;28;20022;-75
2022/05/14 04:42:31;;;;;;;22.20;6.15;;;13.20;99.90;;;;;;5038974;28;20026;-77
2022/05/14 04:44:57;;;;;;;30.92;7.40;;;13.30;99.90;;;;;;5041286;28;20053;-75
2022/05/14 04:47:22;;;;;;;19.42;6.90;;;13.30;99.90;;;;;;5040794;28;20033;-75
2022/05/14 04:49:48;;;;;;;21.63;6.07;;;13.40;99.90;;;;;;5021203;28;20025;-76
2022/05/14 04:52:15;;;;;;;18.63;6.47;;;13.30;99.90;;;;;;5020619;28;20022;-75
2022/05/14 04:54:41;;;;;;;17.23;6.38;;;13.40;99.90;;;;;;5038347;28;20029;-77
2022/05/14 04:57:07;;;;;;;24.63;6.97;;;13.40;99.90;;;;;;5020606;28;20037;-75
2022/05/14 04:59:33;;;;;;;20.02;6.05;;;13.40;99.90;;;;;;5019965;28;20048;-76
2022/05/14 05:04:44;;;;;;;14.73;6.35;;;13.40;99.90;;;;;;5040046;28;20041;-76
2022/05/14 05:07:09;;;;;;;16.35;5.68;;;13.30;99.90;;;;;;5038477;28;20486;-76
2022/05/14 05:09:35;;;;;;;20.55;7.07;;;13.30;99.90;;;;;;5039226;28;20166;-74
2022/05/14 05:12:01;;;;;;;19.58;7.00;;;13.30;99.90;;;;;;5036885;28;20021;-76
2022/05/14 05:14:26;;;;;;;17.83;6.47;;;13.30;99.90;;;;;;5016257;28;20057;-76
2022/05/14 05:16:52;;;;;;;19.77;6.97;;;13.40;99.90;;;;;;5037898;28;20075;-76
2022/05/14 05:19:18;;;;;;;21.45;7.05;;;13.50;99.90;;;;;;5037870;28;20065;-76
2022/05/14 05:21:44;;;;;;;23.17;7.57;;;13.50;99.90;;;;;;5037577;28;20029;-76
2022/05/14 05:24:10;;;;;;;25.08;6.47;;;13.60;99.90;;;;;;5038112;28;20052;-76
2022/05/14 05:26:36;;;;;;;18.65;6.70;;;13.60;99.90;;;;;;5037940;28;20026;-75
2022/05/14 05:29:03;;;;;;;27.50;7.30;;;13.60;99.90;;;;;;5019441;28;20065;-76
2022/05/14 05:31:31;;;;;;;21.55;6.47;;;13.70;99.90;;;;;;5037956;28;20096;-76
2022/05/14 05:33:57;;;;;;;29.80;7.60;;;13.80;99.90;;;;;;5037949;28;20368;-76
2022/05/14 05:36:22;;;;;;;21.88;6.68;;;13.80;99.90;;;;;;5020234;28;20037;-75
2022/05/14 05:38:51;;;;;;;21.38;6.78;;;13.80;99.90;;;;;;5019576;28;20044;-75
2022/05/14 05:41:17;;;;;;;18.38;6.22;;;13.80;99.90;;;;;;5039163;28;20021;-75
2022/05/14 05:43:42;;;;;;;23.60;7.30;;;13.90;99.90;;;;;;5038052;28;20018;-75
2022/05/14 05:46:09;;;;;;;24.83;6.40;;;14.00;99.90;;;;;;5020301;28;20376;-74
2022/05/14 05:48:34;;;;;;;20.05;6.68;;;14.00;99.90;;;;;;5037615;28;20021;-75
2022/05/14 05:51:00;;;;;;;22.50;7.18;;;14.00;99.90;;;;;;5019332;28;20079;-75
2022/05/14 05:56:46;;;;;;;27.90;7.50;;;14.10;99.90;;;;;;5038460;28;20041;-75
2022/05/14 05:58:55;;;;;;;30.80;7.30;;;14.30;99.90;;;;;;5037720;28;20056;-76
2022/05/14 06:01:21;;;;;;;20.38;7.78;;;14.40;99.90;;;;;;5037920;28;20486;-75
2022/05/14 06:03:48;;;;;;;24.35;7.25;;;14.30;99.90;;;;;;5038528;28;20026;-74
2022/05/14 06:06:15;;;;;;;22.75;7.05;;;14.30;99.90;;;;;;5037834;28;20529;-75
2022/05/14 06:08:41;;;;;;;24.17;7.15;;;14.50;99.90;;;;;;5039178;28;20077;-75
2022/05/14 06:11:06;;;;;;;20.30;6.85;;;14.50;99.90;;;;;;5023443;28;20560;-75
2022/05/14 06:13:32;;;;;;;22.35;7.53;;;14.60;99.90;;;;;;5040052;28;20045;-75
2022/05/14 06:16:00;;;;;;;18.95;7.22;;;14.70;99.90;;;;;;5023436;28;20055;-75
2022/05/14 06:18:26;;;;;;;23.52;7.10;;;14.80;99.90;;;;;;5040880;28;20028;-74
2022/05/14 06:20:51;;;;;;;20.92;7.40;;;14.80;99.90;;;;;;5043320;28;20037;-75
2022/05/14 06:23:17;;;;;;;18.48;7.00;;;14.90;99.90;;;;;;5043846;28;20029;-74
2022/05/14 06:25:43;;;;;;;27.92;7.38;;;14.90;99.90;;;;;;5025190;28;20033;-74
2022/05/14 06:28:08;;;;;;;26.20;7.10;;;14.90;99.90;;;;;;5044398;28;20091;-74
2022/05/14 06:30:36;;;;;;;34.92;8.15;;;15.00;99.90;;;;;;5044457;28;20482;-75
2022/05/14 06:33:04;;;;;;;28.23;7.90;;;15.10;99.90;;;;;;5045827;28;20028;-74
2022/05/14 06:35:30;;;;;;;24.73;7.30;;;15.00;99.90;;;;;;5043009;28;20029;-74
2022/05/14 06:37:56;;;;;;;22.85;7.22;;;15.10;99.90;;;;;;5038040;28;20029;-73
2022/05/14 06:40:22;;;;;;;28.48;8.25;;;15.10;99.90;;;;;;5037499;28;20025;-72
2022/05/14 06:42:47;;;;;;;24.13;8.07;;;15.20;99.90;;;;;;5037718;28;20037;-73
2022/05/14 06:45:13;;;;;;;25.75;8.10;;;15.30;99.90;;;;;;5037758;28;20030;-73
2022/05/14 06:47:38;;;;;;;21.40;6.95;;;15.40;99.90;;;;;;5037557;28;20029;-74
2022/05/14 06:50:05;;;;;;;26.08;6.88;;;15.40;99.90;;;;;;5037394;28;20520;-73
2022/05/14 06:52:31;;;;;;;28.23;6.88;;;15.50;99.90;;;;;;5037937;28;20033;-75
2022/05/14 06:54:59;;;;;;;26.05;7.22;;;15.60;99.90;;;;;;5038311;28;20025;-75
2022/05/14 06:57:24;;;;;;;24.08;7.18;;;15.50;99.90;;;;;;5037493;28;20037;-75
2022/05/14 06:59:50;;;;;;;30.00;8.10;;;15.60;99.90;;;;;;5020992;28;20029;-75
2022/05/14 07:02:17;;;;;;;26.30;6.53;;;15.70;99.90;;;;;;5042832;28;20029;-75
2022/05/14 07:07:28;;;;;;;25.35;7.03;;;16.10;99.90;;;;;;5039386;28;20098;-74
2022/05/14 07:09:55;;;;;;;20.55;6.85;;;16.20;99.90;;;;;;5021034;28;20475;-75
2022/05/14 07:12:21;;;;;;;22.65;6.35;;;16.30;99.90;;;;;;5037476;28;20022;-77
2022/05/14 07:14:47;;;;;;;26.55;7.20;;;16.20;99.90;;;;;;5037650;28;20113;-75
2022/05/14 07:17:13;;;;;;;22.05;6.95;;;16.20;99.90;;;;;;5020046;28;20110;-75
2022/05/14 07:19:40;;;;;;;27.25;7.30;;;16.30;99.90;;;;;;5036995;28;20386;-74
2022/05/14 07:22:06;;;;;;;29.02;7.50;;;16.10;99.90;;;;;;5037732;28;20021;-75
2022/05/14 07:24:32;;;;;;;27.65;7.97;;;16.10;99.90;;;;;;5037926;28;20477;-75
2022/05/14 07:27:01;;;;;;;32.05;6.60;;;16.20;99.90;;;;;;5037878;28;20077;-75
2022/05/14 07:29:27;;;;;;;22.25;6.50;;;16.50;99.90;;;;;;5038083;28;20041;-74
2022/05/14 07:31:54;;;;;;;28.70;6.55;;;16.70;99.90;;;;;;5037881;28;20026;-75
2022/05/14 07:34:20;;;;;;;22.45;6.60;;;16.70;99.90;;;;;;5019863;28;20513;-75
2022/05/14 07:37:02;;;;;;;24.83;8.15;;;16.70;99.90;;;;;;5020225;28;20036;-75
2022/05/14 07:39:32;;;;;;;29.92;7.72;;;16.80;99.90;;;;;;5020006;28;20032;-75
2022/05/14 07:42:01;;;;;;;27.35;6.45;;;16.80;99.90;;;;;;5019787;28;20025;-74
2022/05/14 07:44:34;;;;;;;27.38;6.38;;;16.80;99.90;;;;;;5037636;28;20032;-74
2022/05/14 07:47:00;;;;;;;19.98;6.18;;;16.80;99.90;;;;;;5021028;28;20089;-74
2022/05/14 07:49:27;;;;;;;30.92;7.05;;;16.80;99.90;;;;;;5037284;28;20101;-74
2022/05/14 07:51:54;;;;;;;21.83;6.32;;;16.80;99.90;;;;;;5020897;28;20466;-74
2022/05/14 07:54:20;;;;;;;29.73;6.72;;;16.80;99.90;;;;;;5035399;28;20093;-73
2022/05/14 07:56:46;;;;;;;25.27;5.68;;;16.90;99.90;;;;;;5049822;28;20041;-73
2022/05/14 07:59:12;;;;;;;19.10;5.50;;;17.00;99.90;;;;;;5041688;28;20435;-75
2022/05/14 08:01:40;;;;;;;27.20;6.82;;;17.10;99.90;;;;;;5019166;28;20036;-75
2022/05/14 08:04:07;;;;;;;23.02;5.40;;;17.20;99.90;;;;;;5037304;28;20025;-74
2022/05/14 08:06:32;;;;;;;23.02;5.05;;;17.40;99.90;;;;;;5036333;28;20025;-75
2022/05/14 08:08:58;;;;;;;24.02;5.32;;;17.60;99.90;;;;;;5019621;28;20026;-75
2022/05/14 08:11:24;;;;;;;17.25;5.00;;;17.70;99.90;;;;;;5043367;28;20044;-75
2022/05/14 08:13:54;;;;;;;15.45;4.78;;;17.80;99.90;;;;;;5021877;28;20187;-74
2022/05/14 08:16:22;;;;;;;18.65;5.30;;;17.80;99.90;;;;;;5026188;28;20494;-73
2022/05/14 08:18:47;;;;;;;21.67;5.00;;;17.80;99.90;;;;;;5043986;28;20179;-74
2022/05/14 08:26:42;;;;;;;13.80;3.22;;;18.10;99.90;;;;;;5016674;28;20028;-75
2022/05/14 08:29:07;;;;;;;16.30;4.43;;;18.10;99.90;;;;;;4999190;28;20049;-75
2022/05/14 08:31:33;;;;;;;10.65;3.75;;;17.90;99.90;;;;;;5021686;28;20033;-75
2022/05/14 08:34:00;;;;;;;14.30;4.00;;;18.00;99.90;;;;;;5020708;28;20026;-75
2022/05/14 08:36:25;;;;;;;10.25;2.90;;;18.00;99.90;;;;;;5007780;28;20376;-74
2022/05/14 08:38:51;;;;;;;13.27;3.30;;;18.10;99.90;;;;;;5019957;28;20029;-74
2022/05/14 08:41:18;;;;;;;13.43;3.53;;;18.10;99.90;;;;;;5019103;28;20018;-73
2022/05/14 08:43:51;;;;;;;16.35;3.33;;;18.10;99.90;;;;;;5019056;28;20018;-74
2022/05/14 08:46:21;;;;;;;12.70;3.42;;;18.10;99.90;;;;;;5007867;28;20040;-74
2022/05/14 08:48:52;;;;;;;14.57;3.80;;;18.10;99.90;;;;;;5022706;28;20071;-74
2022/05/14 08:51:26;;;;;;;14.75;4.20;;;18.20;99.90;;;;;;5023295;28;20345;-74
2022/05/14 08:53:51;;;;;;;18.67;3.35;;;18.10;99.90;;;;;;5041901;28;20013;-75
2022/05/14 08:56:26;;;;;;;12.15;3.30;;;18.10;99.90;;;;;;5023192;28;20064;-75
2022/05/14 08:59:18;;;;;;;12.27;3.88;;;18.20;99.90;;;;;;5041217;28;20044;-74
2022/05/14 09:01:45;;;;;;;12.20;3.47;;;18.40;99.90;;;;;;5042611;28;20111;-74
2022/05/14 09:04:13;;;;;;;14.30;3.40;;;18.60;99.90;;;;;;5043080;28;20079;-74
2022/05/14 09:06:40;;;;;;;13.88;3.70;;;18.60;99.90;;;;;;5027621;28;20082;-73
2022/05/14 09:09:07;;;;;;;17.20;4.10;;;18.70;99.90;;;;;;5031062;28;20467;-75
2022/05/14 09:11:50;;;;;;;14.50;3.67;;;18.80;99.90;;;;;;5038489;28;20109;-76
2022/05/14 09:14:27;;;;;;;15.38;3.55;;;18.90;99.90;;;;;;5037243;28;20487;-75
2022/05/14 09:17:06;;;;;;;17.55;5.15;;;18.90;99.90;;;;;;5038282;28;20039;-74
2022/05/14 09:19:38;;;;;;;12.98;4.43;;;19.00;99.90;;;;;;5044645;28;20079;-73
2022/05/14 09:22:34;;;;;;;19.55;5.00;;;19.00;99.90;;;;;;5044967;28;20072;-75
2022/05/14 09:25:17;;;;;;;19.17;6.03;;;19.00;99.90;;;;;;5038773;28;20021;-74
2022/05/14 09:28:08;;;;;;;17.60;4.53;;;19.00;99.90;;;;;;5038527;28;20419;-74
2022/05/14 09:30:55;;;;;;;16.98;5.20;;;19.00;99.90;;;;;;5041966;28;20044;-75
2022/05/14 09:33:38;;;;;;;15.20;4.53;;;19.00;99.90;;;;;;5044940;28;20450;-74
2022/05/14 09:36:05;;;;;;;18.95;4.93;;;18.90;99.90;;;;;;5057825;28;20084;-74
2022/05/14 09:38:31;;;;;;;19.25;6.03;;;18.80;99.90;;;;;;5039749;28;20393;-74
2022/05/14 09:41:10;;;;;;;21.10;5.47;;;18.90;99.90;;;;;;5058152;28;20021;-74
2022/05/14 09:43:37;;;;;;;16.80;4.63;;;19.20;99.90;;;;;;5057668;28;20117;-74
2022/05/14 09:46:10;;;;;;;16.73;4.80;;;19.30;99.90;;;;;;5040558;28;20021;-74
2022/05/14 09:48:51;;;;;;;21.45;4.70;;;19.20;99.90;;;;;;5058777;28;20024;-74
2022/05/14 09:51:28;;;;;;;;;;;19.00;99.90;;;;;;5060013;28;20028;-74
2022/05/14 09:53:55;;;;;;;16.15;4.50;;;19.10;99.90;;;;;;5028020;28;20390;-74
2022/05/14 09:56:46;;;;;;;16.73;4.55;;;19.30;99.90;;;;;;5037913;28;20451;-74
2022/05/14 09:59:30;;;;;;;20.77;5.00;;;19.40;99.90;;;;;;5059817;22;20040;-69
2022/05/14 10:02:09;;;;;;;20.67;4.93;;;19.60;99.90;;;;;;5032830;28;20056;-69
2022/05/14 10:04:52;;;;;;;16.95;5.10;;;19.60;99.90;;;;;;5032742;28;20025;-70
2022/05/14 10:07:31;;;;;;;16.08;3.88;;;19.50;99.90;;;;;;5040113;28;20051;-70
2022/05/14 10:10:24;;;;;;;19.27;4.28;;;19.40;99.90;;;;;;5036700;28;20033;-70
2022/05/14 10:12:56;;;;;;;18.35;4.68;;;19.40;99.90;;;;;;5016505;28;20021;-69
2022/05/14 10:15:45;;;;;;;13.70;3.80;;;19.40;99.90;;;;;;5033043;28;20038;-71
2022/05/14 10:18:55;;;;;;;13.77;4.22;;;19.50;99.90;;;;;;5034190;28;20032;-70
2022/05/14 10:21:29;;;;;;;16.75;4.45;;;19.50;99.90;;;;;;5033882;28;20036;-70
2022/05/14 10:27:15;;;;;;;17.83;4.63;;;19.80;99.90;;;;;;5036348;28;20036;-69
2022/05/14 10:29:43;;;;;;;18.25;4.53;;;19.80;99.90;;;;;;5021080;28;20022;-69
2022/05/14 10:32:18;;;;;;;24.00;5.30;;;19.70;99.90;;;;;;5039756;28;20053;-70
2022/05/14 10:35:00;;;;;;;14.50;5.05;;;19.60;99.90;;;;;;5037872;28;20018;-69
2022/05/14 10:37:44;;;;;;;16.92;4.00;;;19.70;99.90;;;;;;5037062;28;20087;-69
2022/05/14 10:40:24;;;;;;;19.02;4.50;;;19.50;99.90;;;;;;5036585;28;20035;-70
2022/05/14 10:43:04;;;;;;;20.77;4.63;;;19.50;99.90;;;;;;5036923;28;20459;-70
2022/05/14 10:45:42;;;;;;;22.45;4.55;;;19.60;99.90;;;;;;5016400;28;20081;-70
2022/05/14 10:48:34;;;;;;;19.00;4.10;;;19.60;99.90;;;;;;5032509;28;20025;-69
2022/05/14 10:51:05;;;;;;;21.92;4.60;;;19.60;99.90;;;;;;5040324;28;20486;-69
2022/05/14 10:53:33;;;;;;;23.27;5.95;;;19.80;99.90;;;;;;5037633;28;20384;-69
2022/05/14 10:56:04;;;;;;;31.35;5.68;;;19.80;99.90;;;;;;5033001;28;20143;-69
2022/05/14 10:59:01;;;;;;;16.45;4.55;;;19.80;99.90;;;;;;5031887;28;20096;-69
2022/05/14 11:01:32;;;;;;;19.35;4.75;;;19.90;99.90;;;;;;5002328;28;20087;-69
2022/05/14 11:04:19;;;;;;;21.45;5.15;;;19.90;99.90;;;;;;5016533;28;20030;-69
2022/05/14 11:07:00;;;;;;;21.10;4.95;;;19.90;99.90;;;;;;5029739;28;20037;-69
2022/05/14 11:09:40;;;;;;;20.40;5.10;;;19.70;99.90;;;;;;5051842;28;20017;-69
2022/05/14 11:12:18;;;;;;;18.37;6.57;;;19.70;99.90;;;;;;5034188;28;20482;-69
2022/05/14 11:14:45;;;;;;;24.10;6.43;;;19.60;99.90;;;;;;5052378;28;20021;-69
2022/05/14 11:17:18;;;;;;;17.52;5.32;;;19.60;99.90;;;;;;5018321;28;20087;-70
2022/05/14 11:19:44;;;;;;;18.38;4.82;;;19.60;99.90;;;;;;5032078;28;20445;-74
2022/05/14 11:22:23;;;;;;;19.92;5.68;;;19.50;99.90;;;;;;5014460;28;20049;-69
2022/05/14 11:24:50;;;;;;;21.50;5.03;;;19.50;99.90;;;;;;5032636;28;20371;-69
2022/05/14 11:27:32;;;;;;;17.45;4.88;;;19.40;99.90;;;;;;5031816;28;20519;-69
2022/05/14 11:30:04;;;;;;;18.17;5.15;;;19.50;99.90;;;;;;5031805;28;20049;-68
2022/05/14 11:32:38;;;;;;;;;;;19.60;99.90;;;;;;5032494;28;20037;-70
2022/05/14 11:35:04;;;;;;;23.38;6.35;;;19.60;99.90;;;;;;5037805;28;20317;-70
2022/05/14 11:37:37;;;;;;;18.02;5.95;;;19.70;99.90;;;;;;5014271;28;20034;-70
2022/05/14 11:40:21;;;;;;;21.05;5.63;;;19.50;99.90;;;;;;5022993;28;20425;-70
2022/05/14 11:42:50;;;;;;;18.35;6.13;;;19.60;99.90;;;;;;5028346;28;20021;-70
2022/05/14 11:45:19;;;;;;;17.45;4.70;;;19.70;99.90;;;;;;5010672;28;20499;-70
2022/05/14 11:48:06;;;;;;;22.20;4.60;;;19.70;99.90;;;;;;5019948;28;20472;-71
2022/05/14 11:50:36;;;;;;;23.15;4.65;;;19.60;99.90;;;;;;5001329;28;20112;-71
2022/05/14 11:53:29;;;;;;;17.55;3.70;;;19.70;99.90;;;;;;5031822;28;20035;-70
2022/05/14 11:56:01;;;;;;;21.70;4.90;;;19.60;99.90;;;;;;5025792;28;20036;-70
2022/05/14 11:58:46;;;;;;;14.90;4.43;;;19.50;99.90;;;;;;5028928;28;20033;-71
2022/05/14 12:01:22;;;;;;;20.42;5.00;;;19.50;99.90;;;;;;5028187;28;20029;-71
2022/05/14 12:03:49;;;;;;;22.20;4.85;;;19.50;99.90;;;;;;5031929;28;20024;-71
2022/05/14 12:06:23;;;;;;;16.35;5.07;;;19.30;99.90;;;;;;5018595;28;20029;-71
2022/05/14 12:09:07;;;;;;;20.02;4.68;;;19.40;99.90;;;;;;5037333;28;20028;-71
2022/05/14 12:11:49;;;;;;;20.23;5.00;;;19.40;99.90;;;;;;5017927;28;20129;-70
2022/05/14 12:14:26;;;;;;;15.43;4.53;;;19.50;99.90;;;;;;5035240;28;20021;-70
2022/05/14 12:16:55;;;;;;;19.58;4.65;;;19.50;99.90;;;;;;5044366;28;20033;-70
2022/05/14 12:19:34;;;;;;;24.80;4.82;;;19.50;99.90;;;;;;5034894;28;20104;-70
2022/05/14 12:22:03;;;;;;;18.88;4.88;;;19.50;99.90;;;;;;5017488;28;20501;-71
2022/05/14 12:24:31;;;;;;;19.73;4.30;;;19.60;99.90;;;;;;5035231;28;20041;-71
2022/05/14 12:26:57;;;;;;;16.95;4.85;;;19.90;99.90;;;;;;5040133;28;20483;-71
2022/05/14 12:29:29;;;;;;;16.08;5.10;;;20.00;99.90;;;;;;5049882;28;20131;-71
2022/05/14 12:34:47;;;;;;;21.13;5.50;;;20.10;99.90;;;;;;5039489;28;20051;-70
2022/05/14 12:37:37;;;;;;;19.05;4.60;;;20.10;99.90;;;;;;5017126;28;20534;-70
2022/05/14 12:40:03;;;;;;;16.08;5.38;;;19.80;99.90;;;;;;5043743;28;20036;-68
2022/05/14 12:42:41;;;;;;;22.02;5.28;;;19.90;99.90;;;;;;5048997;28;20053;-68
2022/05/14 12:45:09;;;;;;;21.27;4.50;;;20.00;99.90;;;;;;5014188;28;20055;-69
2022/05/14 12:47:37;;;;;;;22.38;5.53;;;20.10;99.90;;;;;;5012704;28;20018;-69
2022/05/14 12:50:18;;;;;;;23.10;5.70;;;20.10;99.90;;;;;;5014681;28;20521;-70
2022/05/14 12:52:59;;;;;;;18.58;4.63;;;20.10;99.90;;;;;;5017810;28;20034;-70
2022/05/14 12:55:25;;;;;;;;;;;20.30;99.90;;;;;;5013925;28;20565;-70
2022/05/14 12:57:52;;;;;;;22.88;5.32;;;20.30;99.90;;;;;;5023864;28;19913;-70
2022/05/14 13:00:20;;;;;;;19.10;5.05;;;20.20;99.90;;;;;;5022072;28;20399;-70
2022/05/14 13:02:58;;;;;;;16.42;5.28;;;20.20;99.90;;;;;;5023515;28;20022;-69
2022/05/14 13:05:32;;;;;;;23.30;4.90;;;20.20;99.90;;;;;;5026528;28;20013;-73
2022/05/14 13:08:06;;;;;;;21.63;6.22;;;20.10;99.90;;;;;;5008675;28;20391;-72
2022/05/14 13:10:32;;;;;;;20.52;5.30;;;20.20;99.90;;;;;;5026831;28;20465;-67
2022/05/14 13:13:05;;;;;;;28.83;5.90;;;20.30;99.90;;;;;;5026239;28;20076;-69
2022/05/14 13:15:41;;;;;;;22.00;5.40;;;20.40;99.90;;;;;;5030933;28;20022;-68
2022/05/14 13:18:32;;;;;;;20.63;4.35;;;20.30;99.90;;;;;;5008126;28;20121;-69